Time;durP1;ratioP1;P1;durP2;ratioP2;P2;SDS_P1;SDS_P2;PMS_P1;PMS_P2;Temp;Humidity;BMP_temperature;BMP_pressure;BME280_temperature;BME280_humidity;BME280_pressure;Samples;Min_cycle;Max_cycle;Signal;HPM_P1;HPM_P2
2022/02/26 00:01:08;;;;;;;20.27;4.13;;;;;;;;;;5018016;28;20048;-83
2022/02/26 00:03:34;;;;;;;20.92;4.80;;;;;;;;;;5001220;28;20045;-83
2022/02/26 00:05:59;;;;;;;14.45;4.00;;;;;;;;;;5003295;28;20414;-83
2022/02/26 00:08:25;;;;;;;22.70;3.85;;;;;;;;;;5017329;28;20704;-83
2022/02/26 00:10:51;;;;;;;25.50;4.38;;;;;;;;;;5018296;28;20060;-83
2022/02/26 00:13:16;;;;;;;22.70;3.58;;;;;;;;;;5001240;28;20033;-83
2022/02/26 00:15:42;;;;;;;22.00;4.18;;;;;;;;;;5016969;28;20045;-83
2022/02/26 00:18:08;;;;;;;20.05;4.05;;;;;;;;;;5017255;28;20060;-83
2022/02/26 00:20:34;;;;;;;15.70;3.22;;;;;;;;;;5005075;28;20038;-83
2022/02/26 00:22:59;;;;;;;29.75;5.20;;;;;;;;;;5016533;28;20041;-82
2022/02/26 00:25:25;;;;;;;21.20;4.22;;;;;;;;;;5000972;28;20280;-83
2022/02/26 00:27:51;;;;;;;21.85;4.10;;;;;;;;;;5017163;28;20068;-83
2022/02/26 00:30:17;;;;;;;20.23;4.25;;;;;;;;;;5001192;28;20099;-83
2022/02/26 00:32:42;;;;;;;23.98;4.30;;;;;;;;;;5016664;28;20522;-83
2022/02/26 00:35:08;;;;;;;22.92;3.95;;;;;;;;;;4999526;28;20053;-82
2022/02/26 00:37:34;;;;;;;19.92;3.72;;;;;;;;;;5001532;28;20037;-83
2022/02/26 00:39:59;;;;;;;24.20;3.85;;;;;;;;;;5000191;28;20101;-82
2022/02/26 00:42:25;;;;;;;23.48;3.88;;;;;;;;;;5015872;28;20045;-83
2022/02/26 00:44:51;;;;;;;23.45;3.55;;;;;;;;;;4999806;28;20042;-83
2022/02/26 00:47:16;;;;;;;25.50;3.80;;;;;;;;;;5016130;28;20034;-83
2022/02/26 00:49:49;;;;;;;25.95;3.95;;;;;;;;;;5001862;28;20042;-83
2022/02/26 00:52:20;;;;;;;25.50;4.28;;;;;;;;;;4999962;28;20091;-83
2022/02/26 00:54:46;;;;;;;24.80;4.47;;;;;;;;;;5015435;28;20037;-83
2022/02/26 00:57:13;;;;;;;27.23;3.80;;;;;;;;;;4999911;28;20064;-83
2022/02/26 00:59:38;;;;;;;30.90;5.47;;;;;;;;;;4999272;28;20338;-82
2022/02/26 01:02:06;;;;;;;16.45;3.70;;;;;;;;;;5004110;28;20116;-83
2022/02/26 01:04:32;;;;;;;20.08;3.97;;;;;;;;;;4998909;28;20034;-83
2022/02/26 01:06:58;;;;;;;18.92;3.60;;;;;;;;;;5000340;28;20034;-83
2022/02/26 01:09:24;;;;;;;21.05;3.80;;;;;;;;;;5014924;28;20058;-82
2022/02/26 01:11:50;;;;;;;24.80;3.95;;;;;;;;;;5015907;28;20107;-83
2022/02/26 01:14:15;;;;;;;20.55;4.00;;;;;;;;;;4999342;28;20041;-82
2022/02/26 01:16:41;;;;;;;17.52;3.70;;;;;;;;;;4999314;28;20060;-82
2022/02/26 01:19:07;;;;;;;23.92;4.28;;;;;;;;;;5015759;28;20131;-82
2022/02/26 01:21:33;;;;;;;18.80;3.85;;;;;;;;;;5000783;28;20421;-83
2022/02/26 01:23:59;;;;;;;18.33;3.40;;;;;;;;;;4998611;28;20513;-83
2022/02/26 01:26:25;;;;;;;23.55;5.03;;;;;;;;;;5015048;28;20588;-83
2022/02/26 01:28:51;;;;;;;17.95;3.40;;;;;;;;;;4999831;28;20263;-83
2022/02/26 01:31:17;;;;;;;16.27;4.07;;;;;;;;;;5015518;28;20371;-82
2022/02/26 01:33:44;;;;;;;22.92;3.65;;;;;;;;;;4999471;28;20033;-82
2022/02/26 01:36:09;;;;;;;26.73;5.18;;;;;;;;;;4999513;28;20030;-83
2022/02/26 01:38:35;;;;;;;22.15;3.58;;;;;;;;;;5031025;28;20290;-82
2022/02/26 01:41:01;;;;;;;21.40;3.95;;;;;;;;;;4998801;28;20042;-83
2022/02/26 01:43:27;;;;;;;23.98;3.63;;;;;;;;;;4998273;28;20041;-83
2022/02/26 01:45:53;;;;;;;21.35;3.70;;;;;;;;;;4999772;28;20049;-83
2022/02/26 01:48:19;;;;;;;28.45;3.95;;;;;;;;;;4998203;28;20046;-83
2022/02/26 01:50:46;;;;;;;25.60;4.30;;;;;;;;;;4998642;28;20033;-82
2022/02/26 01:53:11;;;;;;;24.00;5.65;;;;;;;;;;5000085;28;20033;-83
2022/02/26 01:55:38;;;;;;;22.48;4.32;;;;;;;;;;4998499;28;20052;-82
2022/02/26 01:58:04;;;;;;;26.08;3.88;;;;;;;;;;4997746;28;20045;-83
2022/02/26 02:00:30;;;;;;;18.15;3.35;;;;;;;;;;4995598;28;20433;-82
2022/02/26 02:02:59;;;;;;;23.13;4.03;;;;;;;;;;4999695;28;20057;-83
2022/02/26 02:05:29;;;;;;;22.88;3.78;;;;;;;;;;4999895;28;20072;-83
2022/02/26 02:07:54;;;;;;;24.23;4.00;;;;;;;;;;5015752;28;20128;-83
2022/02/26 02:10:21;;;;;;;22.63;3.83;;;;;;;;;;4997880;28;20121;-82
2022/02/26 02:12:47;;;;;;;27.45;4.30;;;;;;;;;;5015015;28;20033;-83
2022/02/26 02:15:13;;;;;;;22.13;4.18;;;;;;;;;;5014702;28;20037;-83
2022/02/26 02:17:42;;;;;;;19.42;4.00;;;;;;;;;;4997485;28;20129;-83
2022/02/26 02:20:09;;;;;;;21.85;3.85;;;;;;;;;;4997816;28;20847;-82
2022/02/26 02:22:35;;;;;;;21.85;3.88;;;;;;;;;;5000786;28;20037;-83
2022/02/26 02:25:03;;;;;;;20.33;4.43;;;;;;;;;;5015056;28;20103;-83
2022/02/26 02:27:29;;;;;;;26.52;4.28;;;;;;;;;;5030998;28;20060;-83
2022/02/26 02:29:55;;;;;;;26.15;4.32;;;;;;;;;;4998901;28;21484;-83
2022/02/26 02:32:20;;;;;;;29.98;4.82;;;;;;;;;;5010890;28;20041;-82
2022/02/26 02:34:46;;;;;;;24.38;4.13;;;;;;;;;;5015145;28;20038;-83
2022/02/26 02:37:12;;;;;;;21.95;3.92;;;;;;;;;;5001936;28;20095;-83
2022/02/26 02:39:41;;;;;;;22.23;3.95;;;;;;;;;;5015107;28;20045;-82
2022/02/26 02:42:07;;;;;;;19.92;4.65;;;;;;;;;;4999999;28;20033;-82
2022/02/26 02:44:32;;;;;;;22.58;4.05;;;;;;;;;;5001518;28;20041;-83
2022/02/26 02:46:58;;;;;;;24.52;4.85;;;;;;;;;;5003136;28;20065;-83
2022/02/26 02:49:24;;;;;;;23.75;4.00;;;;;;;;;;5018326;28;20167;-83
2022/02/26 02:51:50;;;;;;;24.80;4.70;;;;;;;;;;5001717;28;20103;-83
2022/02/26 02:54:15;;;;;;;25.63;4.88;;;;;;;;;;5003506;28;20033;-83
2022/02/26 02:56:41;;;;;;;22.95;5.13;;;;;;;;;;5002956;28;20275;-83
2022/02/26 02:59:07;;;;;;;28.65;4.50;;;;;;;;;;5001952;28;20254;-83
2022/02/26 03:01:32;;;;;;;21.42;3.97;;;;;;;;;;5018003;28;20049;-83
2022/02/26 03:03:58;;;;;;;22.83;4.63;;;;;;;;;;5008939;28;20140;-83
2022/02/26 03:06:25;;;;;;;25.50;4.80;;;;;;;;;;5001924;28;20042;-83
2022/02/26 03:08:51;;;;;;;22.55;4.05;;;;;;;;;;4996861;28;20064;-83
2022/02/26 03:11:18;;;;;;;21.00;4.25;;;;;;;;;;4996060;28;20041;-83
2022/02/26 03:13:45;;;;;;;29.60;4.53;;;;;;;;;;5012814;28;20494;-83
2022/02/26 03:16:11;;;;;;;22.15;4.20;;;;;;;;;;4997020;28;20493;-83
2022/02/26 03:18:37;;;;;;;24.75;5.47;;;;;;;;;;4996711;28;20041;-83
2022/02/26 03:21:02;;;;;;;32.45;4.70;;;;;;;;;;5029888;28;20121;-83
2022/02/26 03:23:28;;;;;;;26.83;4.72;;;;;;;;;;4996620;28;20386;-83
2022/02/26 03:25:54;;;;;;;27.40;4.53;;;;;;;;;;4999695;28;20045;-83
2022/02/26 03:28:19;;;;;;;20.02;4.28;;;;;;;;;;5013304;28;20035;-83
2022/02/26 03:30:45;;;;;;;32.70;5.43;;;;;;;;;;5012477;28;20096;-83
2022/02/26 03:33:11;;;;;;;31.13;4.93;;;;;;;;;;4993338;28;20041;-82
2022/02/26 03:35:39;;;;;;;27.63;4.07;;;;;;;;;;4992889;28;20056;-82
2022/02/26 03:38:05;;;;;;;16.95;3.53;;;;;;;;;;5007928;28;20348;-82
2022/02/26 03:40:30;;;;;;;25.20;4.72;;;;;;;;;;5009043;28;20046;-82
2022/02/26 03:42:56;;;;;;;24.42;4.35;;;;;;;;;;5009291;28;20053;-82
2022/02/26 03:45:22;;;;;;;26.27;4.32;;;;;;;;;;5009294;28;20037;-82
2022/02/26 03:47:48;;;;;;;29.33;5.47;;;;;;;;;;5012993;28;20056;-82
2022/02/26 03:50:14;;;;;;;25.52;4.60;;;;;;;;;;4994003;28;20041;-82
2022/02/26 03:52:40;;;;;;;23.80;3.97;;;;;;;;;;4993417;28;20041;-82
2022/02/26 03:55:07;;;;;;;23.67;4.15;;;;;;;;;;5008977;28;20513;-82
2022/02/26 03:57:33;;;;;;;26.77;4.88;;;;;;;;;;5008382;28;20025;-82
2022/02/26 03:59:59;;;;;;;24.63;5.30;;;;;;;;;;4991998;28;20037;-83
2022/02/26 04:02:24;;;;;;;23.55;4.03;;;;;;;;;;5005411;28;20038;-82
2022/02/26 04:04:50;;;;;;;26.63;5.28;;;;;;;;;;5008455;28;20117;-82
2022/02/26 04:07:16;;;;;;;23.98;6.03;;;;;;;;;;5007733;28;20112;-83
2022/02/26 04:09:42;;;;;;;30.25;5.05;;;;;;;;;;4991936;28;20461;-82
2022/02/26 04:12:09;;;;;;;20.80;4.68;;;;;;;;;;5008542;28;20091;-82
2022/02/26 04:14:34;;;;;;;24.58;3.58;;;;;;;;;;5008973;28;20101;-82
2022/02/26 04:17:00;;;;;;;23.08;5.05;;;;;;;;;;5008436;28;20065;-82
2022/02/26 04:19:26;;;;;;;24.15;4.18;;;;;;;;;;4992268;28;20065;-82
2022/02/26 04:21:51;;;;;;;26.27;4.93;;;;;;;;;;4991600;28;20060;-82
2022/02/26 04:24:17;;;;;;;33.10;4.70;;;;;;;;;;5008095;28;20079;-82
2022/02/26 04:26:44;;;;;;;29.08;4.60;;;;;;;;;;4991212;28;20140;-82
2022/02/26 04:29:11;;;;;;;29.02;5.68;;;;;;;;;;4991400;28;20037;-82
2022/02/26 04:31:37;;;;;;;30.52;4.30;;;;;;;;;;4991808;28;20037;-82
2022/02/26 04:34:03;;;;;;;27.83;5.75;;;;;;;;;;5007327;28;20049;-82
2022/02/26 04:36:28;;;;;;;26.98;4.40;;;;;;;;;;4991638;28;20041;-82
2022/02/26 04:38:54;;;;;;;31.48;6.78;;;;;;;;;;5008015;28;20072;-82
2022/02/26 04:41:20;;;;;;;24.55;5.03;;;;;;;;;;4992810;28;20178;-82
2022/02/26 04:43:46;;;;;;;23.90;4.95;;;;;;;;;;5008163;28;20046;-82
2022/02/26 04:46:12;;;;;;;24.77;4.75;;;;;;;;;;5008364;28;20403;-83
2022/02/26 04:48:38;;;;;;;24.67;4.30;;;;;;;;;;4991580;28;20056;-83
2022/02/26 04:51:08;;;;;;;34.90;6.10;;;;;;;;;;4992511;28;20038;-83
2022/02/26 04:53:34;;;;;;;18.30;4.22;;;;;;;;;;5008324;28;20049;-82
2022/02/26 04:55:59;;;;;;;20.25;4.25;;;;;;;;;;4990911;28;20041;-82
2022/02/26 04:58:25;;;;;;;28.25;4.47;;;;;;;;;;5024570;28;20099;-83
2022/02/26 05:00:52;;;;;;;26.88;4.65;;;;;;;;;;5007757;28;20045;-82
2022/02/26 05:03:17;;;;;;;21.80;4.40;;;;;;;;;;4991750;28;20060;-82
2022/02/26 05:05:43;;;;;;;25.10;3.65;;;;;;;;;;5007120;28;20387;-83
2022/02/26 05:08:09;;;;;;;20.20;3.85;;;;;;;;;;5006986;28;20107;-82
2022/02/26 05:10:34;;;;;;;25.92;3.72;;;;;;;;;;4992024;28;20037;-83
2022/02/26 05:13:00;;;;;;;21.67;4.13;;;;;;;;;;4992522;28;20041;-83
2022/02/26 05:15:26;;;;;;;31.10;5.43;;;;;;;;;;4993159;28;20046;-83
2022/02/26 05:17:51;;;;;;;20.63;5.38;;;;;;;;;;4991396;28;20037;-82
2022/02/26 05:20:17;;;;;;;25.30;4.47;;;;;;;;;;5007880;28;20167;-83
2022/02/26 05:22:43;;;;;;;21.65;4.60;;;;;;;;;;4994992;28;20063;-82
2022/02/26 05:25:10;;;;;;;26.48;4.20;;;;;;;;;;4992176;28;20115;-82
2022/02/26 05:27:37;;;;;;;29.02;4.47;;;;;;;;;;4988915;28;20039;-82
2022/02/26 05:30:04;;;;;;;25.35;4.40;;;;;;;;;;4989564;28;20052;-82
2022/02/26 05:32:30;;;;;;;24.73;4.63;;;;;;;;;;4990928;28;20391;-83
2022/02/26 05:34:56;;;;;;;28.10;4.82;;;;;;;;;;5006785;28;20103;-82
2022/02/26 05:37:22;;;;;;;23.25;3.97;;;;;;;;;;5007781;28;20049;-82
2022/02/26 05:39:49;;;;;;;26.15;4.90;;;;;;;;;;4991847;28;20045;-82
2022/02/26 05:42:15;;;;;;;32.92;5.07;;;;;;;;;;5006645;28;20048;-83
2022/02/26 05:44:41;;;;;;;25.85;4.18;;;;;;;;;;5007111;28;20034;-82
2022/02/26 05:47:07;;;;;;;35.30;6.05;;;;;;;;;;4990595;28;20124;-82
2022/02/26 05:49:33;;;;;;;22.45;4.35;;;;;;;;;;4990510;28;20037;-82
2022/02/26 05:51:58;;;;;;;30.70;5.43;;;;;;;;;;5005586;28;20119;-82
2022/02/26 05:54:24;;;;;;;17.30;4.32;;;;;;;;;;4990399;28;20073;-83
2022/02/26 05:56:50;;;;;;;24.55;4.38;;;;;;;;;;4992472;28;20084;-83
2022/02/26 05:59:15;;;;;;;25.95;4.30;;;;;;;;;;4996476;28;20052;-83
2022/02/26 06:01:41;;;;;;;25.00;4.22;;;;;;;;;;4989398;28;20068;-83
2022/02/26 06:04:07;;;;;;;26.63;4.75;;;;;;;;;;4989540;28;20170;-83
2022/02/26 06:06:33;;;;;;;24.98;5.55;;;;;;;;;;5006295;28;20103;-83
2022/02/26 06:08:58;;;;;;;23.92;4.70;;;;;;;;;;4996759;28;20490;-83
2022/02/26 06:11:24;;;;;;;29.20;4.65;;;;;;;;;;5006276;28;20068;-83
2022/02/26 06:13:50;;;;;;;20.33;4.68;;;;;;;;;;5006300;28;20119;-83
2022/02/26 06:16:16;;;;;;;28.42;4.47;;;;;;;;;;4989086;28;20037;-83
2022/02/26 06:18:42;;;;;;;26.33;3.97;;;;;;;;;;5006577;28;20045;-83
2022/02/26 06:21:07;;;;;;;26.67;4.95;;;;;;;;;;4989766;28;20395;-83
2022/02/26 06:23:33;;;;;;;19.85;3.83;;;;;;;;;;4985645;28;20095;-83
2022/02/26 06:25:59;;;;;;;26.75;6.13;;;;;;;;;;5006006;28;20111;-83
2022/02/26 06:28:24;;;;;;;34.67;8.32;;;;;;;;;;5006696;28;20558;-83
2022/02/26 06:30:50;;;;;;;31.70;8.50;;;;;;;;;;5005459;28;20037;-83
2022/02/26 06:33:16;;;;;;;24.77;7.18;;;;;;;;;;5006526;28;20491;-83
2022/02/26 06:35:42;;;;;;;31.02;8.13;;;;;;;;;;4990135;28;20441;-83
2022/02/26 06:38:08;;;;;;;23.80;6.60;;;;;;;;;;4990610;28;20038;-83
2022/02/26 06:40:33;;;;;;;24.42;4.97;;;;;;;;;;5005151;28;20092;-83
2022/02/26 06:42:59;;;;;;;29.67;6.13;;;;;;;;;;4990593;28;20041;-83
2022/02/26 06:45:25;;;;;;;29.02;4.88;;;;;;;;;;5006211;28;20103;-83
2022/02/26 06:47:51;;;;;;;24.65;5.15;;;;;;;;;;5005385;28;20103;-83
2022/02/26 06:50:16;;;;;;;28.23;5.00;;;;;;;;;;5006110;28;20576;-83
2022/02/26 06:52:42;;;;;;;21.85;4.55;;;;;;;;;;5005740;28;20048;-83
2022/02/26 06:55:08;;;;;;;23.58;5.28;;;;;;;;;;4990290;28;20512;-83
2022/02/26 06:57:34;;;;;;;14.98;4.32;;;;;;;;;;5004987;28;20037;-83
2022/02/26 07:00:00;;;;;;;30.50;5.18;;;;;;;;;;4989439;28;20561;-83
2022/02/26 07:02:26;;;;;;;25.05;5.18;;;;;;;;;;4988518;28;20092;-85
2022/02/26 07:04:52;;;;;;;20.88;4.93;;;;;;;;;;5008150;28;20046;-85
2022/02/26 07:07:17;;;;;;;22.98;4.32;;;;;;;;;;5009350;28;20048;-85
2022/02/26 07:09:46;;;;;;;24.35;4.18;;;;;;;;;;5010193;28;20061;-85
2022/02/26 07:12:12;;;;;;;27.40;4.75;;;;;;;;;;4992574;28;20038;-85
2022/02/26 07:14:37;;;;;;;16.88;3.90;;;;;;;;;;5013910;28;20053;-85
2022/02/26 07:17:04;;;;;;;27.80;5.43;;;;;;;;;;4998038;28;20502;-85
2022/02/26 07:19:29;;;;;;;27.52;5.50;;;;;;;;;;5008972;28;20437;-85
2022/02/26 07:21:57;;;;;;;23.33;4.63;;;;;;;;;;5024506;28;20050;-85
2022/02/26 07:24:23;;;;;;;22.95;4.63;;;;;;;;;;5008502;28;20426;-85
2022/02/26 07:26:49;;;;;;;22.77;5.13;;;;;;;;;;4991362;28;20293;-85
2022/02/26 07:29:15;;;;;;;18.05;4.63;;;;;;;;;;4992951;28;20056;-85
2022/02/26 07:31:40;;;;;;;18.55;4.53;;;;;;;;;;5029417;28;20045;-85
2022/02/26 07:34:06;;;;;;;20.02;4.28;;;;;;;;;;4995932;28;20052;-85
2022/02/26 07:36:32;;;;;;;24.92;3.88;;;;;;;;;;4994961;28;20041;-85
2022/02/26 07:38:58;;;;;;;25.83;6.28;;;;;;;;;;5009426;28;20091;-85
2022/02/26 07:41:23;;;;;;;21.08;4.32;;;;;;;;;;4993124;28;20491;-85
2022/02/26 07:43:49;;;;;;;25.65;4.60;;;;;;;;;;4995791;28;20037;-85
2022/02/26 07:46:15;;;;;;;23.73;4.75;;;;;;;;;;4994347;28;20449;-85
2022/02/26 07:48:41;;;;;;;23.10;4.47;;;;;;;;;;5010800;28;20033;-85
2022/02/26 07:51:07;;;;;;;23.52;4.25;;;;;;;;;;4995899;28;20072;-86
2022/02/26 07:53:33;;;;;;;24.67;4.40;;;;;;;;;;4993412;28;20037;-86
2022/02/26 07:55:59;;;;;;;22.83;4.43;;;;;;;;;;4995408;28;20045;-86
2022/02/26 07:58:25;;;;;;;25.63;4.78;;;;;;;;;;4989808;28;20427;-86
2022/02/26 08:00:51;;;;;;;22.90;4.15;;;;;;;;;;4996203;28;20071;-86
2022/02/26 08:03:17;;;;;;;24.55;4.22;;;;;;;;;;5008266;28;20058;-86
2022/02/26 08:05:42;;;;;;;26.05;4.75;;;;;;;;;;5008372;28;20099;-86
2022/02/26 08:08:08;;;;;;;19.35;3.90;;;;;;;;;;4993060;28;20033;-86
2022/02/26 08:10:35;;;;;;;19.20;4.05;;;;;;;;;;4993498;28;20050;-85
2022/02/26 08:13:01;;;;;;;24.95;4.10;;;;;;;;;;5010033;28;20073;-85
2022/02/26 08:15:28;;;;;;;24.23;3.47;;;;;;;;;;5008718;28;21010;-86
2022/02/26 08:17:54;;;;;;;21.95;3.70;;;;;;;;;;5010012;28;20041;-86
2022/02/26 08:20:24;;;;;;;25.45;4.15;;;;;;;;;;4994530;28;20107;-86
2022/02/26 08:22:51;;;;;;;15.98;3.65;;;;;;;;;;4995401;28;20088;-85
2022/02/26 08:25:17;;;;;;;18.25;4.95;;;;;;;;;;5010058;28;20060;-85
2022/02/26 08:27:43;;;;;;;18.27;4.82;;;;;;;;;;4994230;28;20030;-86
2022/02/26 08:30:11;;;;;;;19.23;4.53;;;;;;;;;;5008987;28;20045;-85
2022/02/26 08:32:37;;;;;;;23.98;6.93;;;;;;;;;;4991894;28;20038;-86
2022/02/26 08:35:04;;;;;;;19.55;5.20;;;;;;;;;;4992021;28;20072;-86
2022/02/26 08:37:30;;;;;;;20.58;4.18;;;;;;;;;;5007688;28;20040;-85
2022/02/26 08:39:56;;;;;;;21.55;5.10;;;;;;;;;;5008386;28;20418;-86
2022/02/26 08:42:22;;;;;;;19.83;4.00;;;;;;;;;;4995601;28;20249;-86
2022/02/26 08:44:48;;;;;;;16.77;3.35;;;;;;;;;;4993180;28;20498;-86
2022/02/26 08:47:14;;;;;;;15.95;3.95;;;;;;;;;;4990270;28;20034;-86
2022/02/26 08:49:39;;;;;;;18.02;4.57;;;;;;;;;;4989663;28;20041;-81
2022/02/26 08:52:05;;;;;;;22.08;4.38;;;;;;;;;;4998494;28;20065;-81
2022/02/26 08:54:31;;;;;;;17.38;4.15;;;;;;;;;;5001683;28;20048;-81
2022/02/26 08:56:57;;;;;;;19.00;4.00;;;;;;;;;;5006002;28;20138;-81
2022/02/26 08:59:23;;;;;;;18.85;3.63;;;;;;;;;;5005610;28;20286;-81
2022/02/26 09:01:49;;;;;;;15.60;3.33;;;;;;;;;;5002358;28;20080;-81
2022/02/26 09:04:14;;;;;;;13.48;4.45;;;;;;;;;;5002906;28;20115;-82
2022/02/26 09:06:40;;;;;;;18.10;3.17;;;;;;;;;;5011058;28;20095;-81
2022/02/26 09:09:10;;;;;;;20.95;4.35;;;;;;;;;;4991534;28;20560;-81
2022/02/26 09:11:37;;;;;;;15.88;4.00;;;;;;;;;;4989980;28;20564;-81
2022/02/26 09:14:03;;;;;;;23.85;4.28;;;;;;;;;;4991603;28;20311;-81
2022/02/26 09:16:29;;;;;;;14.55;3.97;;;;;;;;;;5004244;28;20061;-82
2022/02/26 09:18:55;;;;;;;17.85;3.78;;;;;;;;;;4987930;28;20170;-81
2022/02/26 09:21:20;;;;;;;21.30;4.28;;;;;;;;;;5022586;28;20788;-82
2022/02/26 09:23:46;;;;;;;14.77;3.13;;;;;;;;;;5006315;28;20175;-81
2022/02/26 09:26:12;;;;;;;10.85;3.20;;;;;;;;;;4989435;28;20068;-81
2022/02/26 09:28:42;;;;;;;16.42;3.85;;;;;;;;;;4988634;28;20136;-81
2022/02/26 09:31:09;;;;;;;14.05;3.88;;;;;;;;;;5006123;28;20259;-81
2022/02/26 09:33:35;;;;;;;10.18;3.72;;;;;;;;;;5006236;28;20442;-81
2022/02/26 09:36:04;;;;;;;17.45;4.72;;;;;;;;;;5007675;28;20438;-81
2022/02/26 09:38:30;;;;;;;17.17;4.03;;;;;;;;;;4988529;28;20033;-81
2022/02/26 09:40:57;;;;;;;19.73;5.70;;;;;;;;;;4988319;28;20152;-82
2022/02/26 09:43:24;;;;;;;19.15;4.15;;;;;;;;;;5004585;28;20033;-81
2022/02/26 09:45:50;;;;;;;12.40;4.18;;;;;;;;;;4988031;28;20351;-80
2022/02/26 09:48:16;;;;;;;13.68;3.40;;;;;;;;;;4992288;28;20041;-82
2022/02/26 09:50:43;;;;;;;13.52;4.20;;;;;;;;;;5004061;28;20029;-81
2022/02/26 09:53:11;;;;;;;16.50;3.95;;;;;;;;;;4986401;28;20052;-81
2022/02/26 09:55:38;;;;;;;16.20;3.60;;;;;;;;;;4990758;28;20042;-81
2022/02/26 09:58:04;;;;;;;13.43;3.58;;;;;;;;;;5005069;28;20217;-81
2022/02/26 10:00:30;;;;;;;10.60;3.72;;;;;;;;;;4989217;28;20045;-81
2022/02/26 10:02:56;;;;;;;11.15;2.65;;;;;;;;;;5005280;28;20083;-83
2022/02/26 10:05:22;;;;;;;11.48;3.22;;;;;;;;;;5004214;28;20045;-81
2022/02/26 10:07:50;;;;;;;6.55;2.80;;;;;;;;;;5002848;28;20495;-83
2022/02/26 10:10:20;;;;;;;14.18;2.13;;;;;;;;;;4987092;28;20132;-81
2022/02/26 10:12:57;;;;;;;9.20;2.45;;;;;;;;;;4987016;28;20051;-82
2022/02/26 10:15:24;;;;;;;10.15;2.50;;;;;;;;;;4986723;28;20060;-81
2022/02/26 10:18:02;;;;;;;11.52;2.50;;;;;;;;;;4989895;28;20053;-83
2022/02/26 10:20:28;;;;;;;13.13;2.67;;;;;;;;;;5001779;28;20407;-83
2022/02/26 10:22:55;;;;;;;15.60;2.42;;;;;;;;;;5003797;28;20049;-82
2022/02/26 10:25:24;;;;;;;14.85;2.40;;;;;;;;;;5001889;28;20041;-84
2022/02/26 10:27:53;;;;;;;13.30;2.40;;;;;;;;;;5002523;28;20111;-84
2022/02/26 10:30:31;;;;;;;9.77;2.33;;;;;;;;;;4992693;28;20499;-84
2022/02/26 10:33:11;;;;;;;8.55;2.88;;;;;;;;;;4997747;28;21036;-83
2022/02/26 10:35:44;;;;;;;12.18;2.55;;;;;;;;;;5017151;28;20038;-82
2022/02/26 10:38:14;;;;;;;8.48;2.30;;;;;;;;;;5002751;28;20041;-82
2022/02/26 10:40:54;;;;;;;14.07;2.60;;;;;;;;;;5017934;28;20132;-82
2022/02/26 10:43:44;;;;;;;9.55;2.92;;;;;;;;;;4999873;28;20498;-82
2022/02/26 10:46:22;;;;;;;12.38;2.78;;;;;;;;;;5007810;28;21238;-83
2022/02/26 10:48:53;;;;;;;8.77;2.38;;;;;;;;;;4986120;28;20160;-82
2022/02/26 10:51:22;;;;;;;7.07;2.50;;;;;;;;;;5001282;28;20058;-76
2022/02/26 10:53:48;;;;;;;15.35;3.13;;;;;;;;;;4990126;28;20065;-76
2022/02/26 10:56:14;;;;;;;19.30;4.55;;;;;;;;;;5018252;28;20049;-76
2022/02/26 10:58:41;;;;;;;8.10;2.55;;;;;;;;;;5002928;28;20124;-76
2022/02/26 11:01:09;;;;;;;9.82;2.40;;;;;;;;;;5002655;28;20509;-76
2022/02/26 11:03:35;;;;;;;11.35;2.83;;;;;;;;;;5004210;28;20042;-76
2022/02/26 11:06:03;;;;;;;11.77;2.97;;;;;;;;;;5006357;28;20608;-77
2022/02/26 11:08:30;;;;;;;8.20;2.50;;;;;;;;;;5003027;28;20044;-76
2022/02/26 11:10:59;;;;;;;10.40;3.03;;;;;;;;;;5020480;28;20052;-77
2022/02/26 11:13:25;;;;;;;9.13;2.35;;;;;;;;;;5004009;28;20037;-77
2022/02/26 11:15:53;;;;;;;7.97;2.63;;;;;;;;;;4994906;28;20045;-76
2022/02/26 11:18:20;;;;;;;11.45;3.05;;;;;;;;;;5022474;28;20100;-76
2022/02/26 11:20:46;;;;;;;10.60;2.55;;;;;;;;;;4994793;28;20175;-77
2022/02/26 11:23:13;;;;;;;8.45;2.10;;;;;;;;;;5006429;28;20030;-77
2022/02/26 11:25:39;;;;;;;6.47;1.90;;;;;;;;;;5005494;28;20048;-77
2022/02/26 11:28:07;;;;;;;5.93;2.05;;;;;;;;;;5007188;28;20391;-77
2022/02/26 11:30:35;;;;;;;7.32;2.22;;;;;;;;;;5006272;28;20033;-77
2022/02/26 11:33:03;;;;;;;3.38;1.98;;;;;;;;;;5004542;28;20037;-77
2022/02/26 11:35:29;;;;;;;3.85;1.60;;;;;;;;;;5004076;28;20041;-77
2022/02/26 11:37:58;;;;;;;6.82;2.03;;;;;;;;;;5003383;28;20100;-77
2022/02/26 11:40:24;;;;;;;5.03;1.77;;;;;;;;;;5004236;28;20041;-77
2022/02/26 11:42:52;;;;;;;6.13;1.55;;;;;;;;;;5004370;28;20508;-77
2022/02/26 11:45:32;;;;;;;3.15;1.50;;;;;;;;;;5001594;28;20030;-77
2022/02/26 11:48:17;;;;;;;3.50;1.05;;;;;;;;;;4989297;28;20101;-77
2022/02/26 11:50:42;;;;;;;5.18;1.27;;;;;;;;;;5017702;28;20038;-78
2022/02/26 11:53:11;;;;;;;3.65;1.73;;;;;;;;;;4999664;28;20045;-78
2022/02/26 11:56:05;;;;;;;4.40;1.27;;;;;;;;;;5005300;28;20048;-77
2022/02/26 11:58:34;;;;;;;4.88;1.17;;;;;;;;;;5017727;28;20033;-77
2022/02/26 12:01:04;;;;;;;3.55;1.42;;;;;;;;;;5003107;28;20041;-78
2022/02/26 12:03:39;;;;;;;3.85;1.00;;;;;;;;;;5004978;28;20037;-78
2022/02/26 12:06:11;;;;;;;4.45;1.95;;;;;;;;;;5020814;28;20051;-77
2022/02/26 12:08:56;;;;;;;6.75;2.20;;;;;;;;;;5007076;28;20045;-77
2022/02/26 12:11:31;;;;;;;7.60;3.05;;;;;;;;;;4988530;28;20571;-78
2022/02/26 12:14:24;;;;;;;3.70;1.25;;;;;;;;;;5023854;28;20037;-77
2022/02/26 12:16:55;;;;;;;4.22;1.00;;;;;;;;;;5006569;28;20661;-78
2022/02/26 12:19:29;;;;;;;3.92;1.10;;;;;;;;;;5023297;28;20038;-79
2022/02/26 12:22:00;;;;;;;6.53;2.15;;;;;;;;;;4988461;28;20125;-78
2022/02/26 12:24:28;;;;;;;7.90;2.70;;;;;;;;;;5006783;28;20135;-78
2022/02/26 12:27:06;;;;;;;10.50;3.30;;;;;;;;;;4992721;28;20172;-78
2022/02/26 12:29:50;;;;;;;11.32;3.20;;;;;;;;;;5003909;28;20037;-78
2022/02/26 12:32:15;;;;;;;11.80;3.58;;;;;;;;;;5007518;28;20049;-78
2022/02/26 12:34:48;;;;;;;9.15;2.15;;;;;;;;;;5007586;28;20135;-78
2022/02/26 12:37:22;;;;;;;7.63;2.33;;;;;;;;;;4989037;28;20465;-78
2022/02/26 12:39:53;;;;;;;6.82;2.20;;;;;;;;;;5022370;28;20102;-78
2022/02/26 12:42:23;;;;;;;11.65;2.92;;;;;;;;;;4990532;28;20042;-78
2022/02/26 12:44:51;;;;;;;4.85;1.90;;;;;;;;;;4990163;28;20064;-78
2022/02/26 12:47:17;;;;;;;3.88;1.40;;;;;;;;;;4987525;28;20034;-78
2022/02/26 12:49:43;;;;;;;8.48;1.50;;;;;;;;;;5006725;28;20029;-78
2022/02/26 12:52:10;;;;;;;8.20;1.80;;;;;;;;;;5006293;28;20445;-78
2022/02/26 12:54:37;;;;;;;7.45;1.77;;;;;;;;;;5006064;28;20037;-78
2022/02/26 12:57:04;;;;;;;5.80;1.63;;;;;;;;;;4991065;28;20038;-78
2022/02/26 12:59:31;;;;;;;7.05;1.60;;;;;;;;;;5005461;28;20529;-78
2022/02/26 13:01:58;;;;;;;6.68;1.77;;;;;;;;;;4988624;28;20506;-77
2022/02/26 13:04:31;;;;;;;8.05;1.92;;;;;;;;;;5003796;28;20034;-78
2022/02/26 13:19:50;;;;;;;10.70;2.88;;;;;;;;;;5032364;27;21087;-77
2022/02/26 13:22:15;;;;;;;12.50;3.75;;;;;;;;;;5014869;28;20099;-80
2022/02/26 13:24:41;;;;;;;10.35;4.38;;;;;;;;;;5013574;28;20406;-80
2022/02/26 13:27:09;;;;;;;8.05;3.90;;;;;;;;;;4999344;28;20046;-79
2022/02/26 13:29:40;;;;;;;8.52;3.45;;;;;;;;;;5042012;28;20034;-79
2022/02/26 13:32:29;;;;;;;6.60;2.40;;;;;;;;;;4998144;28;20116;-80
2022/02/26 13:35:00;;;;;;;5.38;2.20;;;;;;;;;;5019007;28;20068;-79
2022/02/26 13:37:28;;;;;;;8.18;2.88;;;;;;;;;;5019845;28;20069;-79
2022/02/26 13:39:54;;;;;;;12.23;3.75;;;;;;;;;;4998527;28;20387;-79
2022/02/26 13:42:28;;;;;;;10.68;3.50;;;;;;;;;;5016749;28;20124;-79
2022/02/26 13:45:03;;;;;;;7.97;3.35;;;;;;;;;;5004942;28;20037;-79
2022/02/26 13:47:30;;;;;;;13.38;5.18;;;;;;;;;;5019996;28;20049;-80
2022/02/26 13:49:57;;;;;;;11.68;4.32;;;;;;;;;;5011964;28;20049;-79
2022/02/26 13:52:25;;;;;;;6.70;2.40;;;;;;;;;;5053320;28;20073;-79
2022/02/26 13:54:53;;;;;;;12.23;2.50;;;;;;;;;;5016468;28;20041;-79
2022/02/26 13:57:23;;;;;;;6.13;2.53;;;;;;;;;;5017300;28;20041;-79
2022/02/26 13:59:50;;;;;;;7.72;2.60;;;;;;;;;;5001102;28;20140;-79
2022/02/26 14:02:23;;;;;;;8.25;2.97;;;;;;;;;;5013852;28;20094;-79
2022/02/26 14:04:56;;;;;;;7.90;2.70;;;;;;;;;;4999846;28;20038;-79
2022/02/26 14:07:36;;;;;;;6.57;2.80;;;;;;;;;;5008307;28;20034;-80
2022/02/26 14:10:04;;;;;;;10.55;2.88;;;;;;;;;;5005698;28;20581;-80
2022/02/26 14:12:30;;;;;;;9.77;4.30;;;;;;;;;;5001816;28;20049;-79
2022/02/26 14:14:57;;;;;;;17.55;6.70;;;;;;;;;;5035205;28;20129;-79
2022/02/26 14:17:22;;;;;;;13.30;4.22;;;;;;;;;;4990436;28;20046;-78
2022/02/26 14:19:48;;;;;;;12.98;5.93;;;;;;;;;;5010477;28;20051;-78
2022/02/26 14:22:15;;;;;;;53.40;23.30;;;;;;;;;;4990380;28;20385;-79
2022/02/26 14:24:43;;;;;;;41.30;20.08;;;;;;;;;;5023119;28;20043;-79
2022/02/26 14:27:17;;;;;;;27.55;14.52;;;;;;;;;;4992175;28;20034;-79
2022/02/26 14:29:43;;;;;;;12.73;6.85;;;;;;;;;;5022666;28;20076;-79
2022/02/26 14:32:10;;;;;;;15.70;8.07;;;;;;;;;;4991596;28;20038;-78
2022/02/26 14:34:37;;;;;;;37.03;17.50;;;;;;;;;;5023127;28;20434;-79
2022/02/26 14:37:04;;;;;;;12.52;6.93;;;;;;;;;;4986560;28;20035;-79
2022/02/26 14:39:30;;;;;;;13.90;5.10;;;;;;;;;;4985166;28;20034;-79
2022/02/26 14:41:58;;;;;;;12.82;5.82;;;;;;;;;;4992742;28;20097;-79
2022/02/26 14:44:26;;;;;;;13.05;6.25;;;;;;;;;;4995407;28;20570;-79